Time;durP1;ratioP1;P1;durP2;ratioP2;P2;SDS_P1;SDS_P2;PMS_P1;PMS_P2;Temp;Humidity;BMP_temperature;BMP_pressure;BME280_temperature;BME280_humidity;BME280_pressure;Samples;Min_cycle;Max_cycle;Signal;HPM_P1;HPM_P2
2022/01/26 00:06:11;;;;;;;0.50;0.10;;;4.30;1.00;;;;;;5035871;28;20514;-74
2022/01/26 00:08:40;;;;;;;0.87;0.87;;;4.20;1.00;;;;;;5035720;28;20506;-74
2022/01/26 00:11:08;;;;;;;0.50;0.10;;;4.30;1.00;;;;;;5038188;28;20454;-73
2022/01/26 00:13:36;;;;;;;0.80;0.80;;;4.10;1.00;;;;;;5037865;28;20457;-74
2022/01/26 00:16:12;;;;;;;0.50;0.10;;;4.10;1.00;;;;;;5032245;28;20447;-73
2022/01/26 00:18:40;;;;;;;0.50;0.10;;;4.20;1.00;;;;;;5015859;28;20938;-74
2022/01/26 00:21:14;;;;;;;0.50;0.10;;;4.20;1.00;;;;;;5026661;28;20928;-75
2022/01/26 00:24:05;;;;;;;0.50;0.10;;;4.20;1.00;;;;;;5035800;28;20855;-72
2022/01/26 00:26:47;;;;;;;0.50;0.20;;;4.20;1.00;;;;;;4998581;28;20450;-74
2022/01/26 00:29:17;;;;;;;0.50;0.20;;;4.30;1.00;;;;;;4998664;28;20550;-73
2022/01/26 00:40:31;;;;;;;0.50;0.10;;;4.10;1.00;;;;;;5004424;28;20477;-73
2022/01/26 00:43:06;;;;;;;0.50;0.10;;;4.20;1.00;;;;;;5003685;28;20525;-74
2022/01/26 00:45:36;;;;;;;1.00;0.57;;;4.20;1.00;;;;;;5013151;28;20849;-75
2022/01/26 00:48:06;;;;;;;2.00;1.27;;;4.10;1.00;;;;;;5010521;28;20492;-72
2022/01/26 00:50:37;;;;;;;0.50;0.10;;;4.00;1.00;;;;;;5016159;28;20449;-72
2022/01/26 00:53:06;;;;;;;0.50;0.20;;;4.10;1.00;;;;;;5013556;28;20466;-74
2022/01/26 00:55:34;;;;;;;0.50;0.30;;;4.10;1.00;;;;;;5014408;28;20480;-73
2022/01/26 00:58:02;;;;;;;0.50;0.10;;;4.20;1.00;;;;;;5030881;28;20437;-75
2022/01/26 01:12:16;;;;;;;0.50;0.10;;;4.30;1.00;;;;;;5041526;28;20424;-73
2022/01/26 01:18:39;;;;;;;0.50;0.10;;;4.40;1.00;;;;;;5014501;28;20488;-73
2022/01/26 01:24:15;;;;;;;3.33;3.10;;;4.10;1.00;;;;;;5017317;28;20472;-74
2022/01/26 01:29:30;;;;;;;3.13;1.83;;;3.90;1.00;;;;;;5028944;28;20529;-74
2022/01/26 01:32:00;;;;;;;0.50;0.20;;;3.80;1.00;;;;;;5031978;28;20424;-72
2022/01/26 01:34:35;;;;;;;0.50;0.20;;;3.70;1.00;;;;;;5013886;28;20461;-73
2022/01/26 01:37:06;;;;;;;0.57;0.27;;;3.70;1.00;;;;;;5014038;28;20523;-74
2022/01/26 01:39:35;;;;;;;1.87;0.43;;;3.70;1.00;;;;;;5014241;28;20427;-74
2022/01/26 01:42:08;;;;;;;7.23;6.67;;;3.80;1.00;;;;;;5015784;28;20443;-74
2022/01/26 01:44:38;;;;;;;0.50;0.20;;;3.60;1.00;;;;;;5034071;28;20561;-73
2022/01/26 01:47:07;;;;;;;2.00;1.90;;;3.60;1.00;;;;;;5034109;28;20497;-73
2022/01/26 01:49:35;;;;;;;0.50;0.10;;;3.60;1.00;;;;;;5033345;28;20812;-73
2022/01/26 01:52:06;;;;;;;0.50;0.10;;;3.60;1.00;;;;;;5031783;28;20635;-72
2022/01/26 01:54:38;;;;;;;0.70;0.50;;;3.70;1.00;;;;;;5013747;28;20472;-73
2022/01/26 01:57:06;;;;;;;0.50;0.10;;;3.90;1.00;;;;;;5013757;28;20925;-74
2022/01/26 01:59:34;;;;;;;0.50;0.10;;;3.90;1.00;;;;;;5013682;28;20472;-75
2022/01/26 02:02:05;;;;;;;0.50;0.10;;;4.00;1.00;;;;;;5015156;28;20652;-73
2022/01/26 02:04:33;;;;;;;0.50;0.10;;;4.00;1.00;;;;;;5032807;28;20468;-74
2022/01/26 02:07:00;;;;;;;0.50;0.10;;;4.00;1.00;;;;;;5033992;28;20451;-74
2022/01/26 02:09:28;;;;;;;0.50;0.20;;;4.00;1.00;;;;;;5039241;28;20480;-73
2022/01/26 02:11:57;;;;;;;0.60;0.43;;;4.10;1.00;;;;;;5037787;28;20450;-73
2022/01/26 02:14:29;;;;;;;0.50;0.10;;;4.10;1.00;;;;;;5016976;28;20468;-73
2022/01/26 02:17:08;;;;;;;0.50;0.10;;;4.10;1.00;;;;;;5022517;28;20550;-74
2022/01/26 02:19:56;;;;;;;0.50;0.10;;;4.10;1.00;;;;;;5015831;28;20460;-74
2022/01/26 02:50:32;;;;;;;0.50;0.10;;;3.90;1.00;;;;;;5033655;28;20448;-75
2022/01/26 02:53:22;;;;;;;0.50;0.10;;;3.80;1.00;;;;;;5017308;28;20523;-74
2022/01/26 02:55:55;;;;;;;0.50;0.20;;;3.70;1.00;;;;;;5010420;28;20978;-73
2022/01/26 02:58:45;;;;;;;0.50;0.10;;;3.80;1.00;;;;;;5012288;28;21024;-73
2022/01/26 03:01:37;;;;;;;0.50;0.10;;;3.70;1.00;;;;;;5013009;28;20468;-72
2022/01/26 03:04:12;;;;;;;0.50;0.10;;;3.80;1.00;;;;;;5012192;28;20514;-74
2022/01/26 03:06:47;;;;;;;0.50;0.10;;;3.80;1.00;;;;;;5019982;28;20421;-72
2022/01/26 03:09:19;;;;;;;4.67;1.63;;;3.80;1.00;;;;;;5019097;28;20493;-74
2022/01/26 03:11:49;;;;;;;0.50;0.10;;;3.80;1.00;;;;;;5026051;28;20445;-72
2022/01/26 03:14:26;;;;;;;0.50;0.10;;;3.70;1.00;;;;;;5032103;28;21038;-73
2022/01/26 03:16:59;;;;;;;0.50;0.10;;;3.70;1.00;;;;;;5032070;28;20509;-72
2022/01/26 03:19:34;;;;;;;0.50;0.17;;;3.70;1.00;;;;;;5031566;28;20449;-73
2022/01/26 03:28:08;;;;;;;0.50;0.10;;;3.70;1.00;;;;;;5020713;28;20961;-74
2022/01/26 03:31:05;;;;;;;0.50;0.20;;;3.70;1.00;;;;;;5016373;28;20439;-75
2022/01/26 03:36:17;;;;;;;0.50;0.10;;;3.70;1.00;;;;;;5016785;28;20447;-72
2022/01/26 03:38:49;;;;;;;0.50;0.10;;;3.70;1.00;;;;;;5016383;28;20785;-73
2022/01/26 03:41:29;;;;;;;1.23;1.13;;;3.70;1.00;;;;;;5019997;28;20460;-73
2022/01/26 03:43:59;;;;;;;0.50;0.10;;;3.70;1.00;;;;;;5036758;28;20466;-73
2022/01/26 03:46:27;;;;;;;0.50;0.10;;;3.70;1.00;;;;;;5038273;28;20487;-74
2022/01/26 03:48:55;;;;;;;0.50;0.10;;;3.70;1.00;;;;;;5037290;28;20894;-72
2022/01/26 03:51:23;;;;;;;0.87;0.87;;;3.80;1.00;;;;;;5031835;28;20453;-73
2022/01/26 03:53:51;;;;;;;0.50;0.20;;;3.80;1.00;;;;;;5021265;28;20492;-74
2022/01/26 03:56:19;;;;;;;0.50;0.10;;;3.80;1.00;;;;;;5018009;28;20478;-73
2022/01/26 03:58:47;;;;;;;0.50;0.10;;;3.80;1.00;;;;;;5015758;28;20973;-73
2022/01/26 04:01:16;;;;;;;0.70;0.40;;;3.80;1.00;;;;;;5018828;28;20452;-73
2022/01/26 04:03:44;;;;;;;0.50;0.10;;;3.70;1.00;;;;;;5037431;28;21020;-72
2022/01/26 04:06:12;;;;;;;0.50;0.10;;;3.70;1.00;;;;;;5039272;28;20468;-74
2022/01/26 04:08:43;;;;;;;0.50;0.10;;;3.70;1.00;;;;;;5037227;28;20486;-73
2022/01/26 04:11:28;;;;;;;0.50;0.10;;;3.70;1.00;;;;;;5034956;28;20450;-73
2022/01/26 04:13:57;;;;;;;0.50;0.10;;;3.70;1.00;;;;;;5017123;28;20466;-73
2022/01/26 04:16:26;;;;;;;0.50;0.10;;;3.70;1.00;;;;;;5016347;28;20813;-73
2022/01/26 04:18:55;;;;;;;0.50;0.10;;;3.70;1.00;;;;;;5015768;28;20446;-72
2022/01/26 04:21:32;;;;;;;0.50;0.10;;;3.80;1.00;;;;;;5015535;28;20549;-73
2022/01/26 04:24:04;;;;;;;0.50;0.10;;;3.80;1.00;;;;;;5015419;28;20465;-72
2022/01/26 04:26:37;;;;;;;0.50;0.10;;;3.70;1.00;;;;;;5016278;28;20524;-73
2022/01/26 04:29:10;;;;;;;0.50;0.10;;;3.80;1.00;;;;;;5015471;28;20482;-74
2022/01/26 04:31:39;;;;;;;0.50;0.17;;;3.70;1.00;;;;;;5029602;28;20445;-74
2022/01/26 04:34:08;;;;;;;0.50;0.10;;;3.70;1.00;;;;;;5037151;28;20486;-73
2022/01/26 04:36:41;;;;;;;0.50;0.10;;;3.70;1.00;;;;;;5034522;28;20826;-73
2022/01/26 04:39:14;;;;;;;0.50;0.20;;;3.60;1.00;;;;;;5034555;28;20484;-74
2022/01/26 04:41:46;;;;;;;0.50;0.10;;;3.60;1.00;;;;;;4994884;28;20440;-73
2022/01/26 04:44:20;;;;;;;0.50;0.10;;;3.60;1.00;;;;;;4995259;28;20456;-73
2022/01/26 04:46:50;;;;;;;0.50;0.10;;;;;;;;;;4995153;28;20948;-74
2022/01/26 04:49:18;;;;;;;0.50;0.10;;;3.60;1.00;;;;;;4995235;28;20498;-74
2022/01/26 04:51:46;;;;;;;1.17;1.13;;;3.60;1.00;;;;;;4994891;28;20953;-74
2022/01/26 04:54:14;;;;;;;1.70;1.60;;;3.60;1.00;;;;;;4995019;28;21200;-73
2022/01/26 04:56:42;;;;;;;0.50;0.10;;;3.60;1.00;;;;;;4998338;28;20454;-74
2022/01/26 04:59:10;;;;;;;0.83;0.67;;;3.60;1.00;;;;;;4995217;28;20977;-74
2022/01/26 05:01:38;;;;;;;0.50;0.10;;;3.60;1.00;;;;;;5033257;28;20922;-74
2022/01/26 05:04:07;;;;;;;0.50;0.10;;;3.60;1.00;;;;;;5034323;28;20473;-74
2022/01/26 05:06:35;;;;;;;0.50;0.10;;;3.60;1.00;;;;;;5035389;28;20446;-73
2022/01/26 05:09:03;;;;;;;5.30;3.20;;;3.70;1.00;;;;;;5034516;28;20455;-73
2022/01/26 05:11:35;;;;;;;0.60;0.10;;;3.70;1.00;;;;;;5016486;28;20492;-74
2022/01/26 05:14:04;;;;;;;0.50;0.10;;;3.70;1.00;;;;;;5017862;28;20480;-75
2022/01/26 05:16:32;;;;;;;0.50;0.10;;;3.70;1.00;;;;;;5039323;28;20475;-74
2022/01/26 05:19:01;;;;;;;0.50;0.10;;;3.70;1.00;;;;;;5029454;28;20490;-73
2022/01/26 05:21:30;;;;;;;0.60;0.33;;;3.70;1.00;;;;;;5035323;28;20447;-73
2022/01/26 05:23:58;;;;;;;0.50;0.10;;;3.70;1.00;;;;;;5040734;28;20539;-75
2022/01/26 05:26:26;;;;;;;0.50;0.10;;;3.70;1.00;;;;;;5040416;28;20817;-73
2022/01/26 05:28:54;;;;;;;0.50;0.10;;;3.60;1.00;;;;;;5035000;28;20453;-74
2022/01/26 05:31:22;;;;;;;0.50;0.10;;;3.70;1.00;;;;;;5020871;28;20474;-74
2022/01/26 05:33:50;;;;;;;0.50;0.10;;;3.60;1.00;;;;;;5010599;28;20546;-75
2022/01/26 05:36:18;;;;;;;0.60;0.30;;;3.60;1.00;;;;;;5033269;28;20461;-73
2022/01/26 05:38:47;;;;;;;0.50;0.10;;;3.60;1.00;;;;;;5033652;28;20449;-74
2022/01/26 05:41:15;;;;;;;0.50;0.10;;;3.60;1.00;;;;;;5033343;28;20639;-74
2022/01/26 05:43:43;;;;;;;0.50;0.10;;;3.60;1.00;;;;;;5024430;28;20462;-74
2022/01/26 05:46:16;;;;;;;0.50;0.30;;;3.60;1.00;;;;;;5013984;28;20449;-73
2022/01/26 05:48:49;;;;;;;0.50;0.10;;;3.60;1.00;;;;;;5014009;28;20442;-73
2022/01/26 05:51:17;;;;;;;0.50;0.10;;;3.50;1.00;;;;;;5009104;28;20576;-73
2022/01/26 05:53:46;;;;;;;0.50;0.10;;;1.50;1.00;;;;;;5008177;28;20954;-73
2022/01/26 05:56:15;;;;;;;0.60;0.50;;;3.50;1.00;;;;;;5030086;28;20543;-74
2022/01/26 05:58:42;;;;;;;0.50;0.10;;;3.40;1.00;;;;;;5001765;28;20500;-74
2022/01/26 06:01:14;;;;;;;0.50;0.10;;;3.40;1.00;;;;;;5019377;28;20444;-74
2022/01/26 06:03:42;;;;;;;0.50;0.10;;;3.50;1.00;;;;;;5019369;28;20473;-73
2022/01/26 06:06:10;;;;;;;0.50;0.10;;;3.40;1.00;;;;;;5016895;28;20465;-73
2022/01/26 06:08:38;;;;;;;0.50;0.10;;;3.50;1.00;;;;;;5014873;28;20485;-74
2022/01/26 06:11:08;;;;;;;0.50;0.10;;;3.50;1.00;;;;;;5022550;28;20555;-73
2022/01/26 06:13:36;;;;;;;0.50;0.10;;;3.60;1.00;;;;;;5023536;28;20363;-74
2022/01/26 06:16:04;;;;;;;0.97;0.97;;;3.60;1.00;;;;;;5018322;28;20698;-72
2022/01/26 06:18:32;;;;;;;0.50;0.10;;;3.60;1.00;;;;;;5027997;28;20816;-72
2022/01/26 06:21:00;;;;;;;0.50;0.20;;;3.70;1.00;;;;;;5022847;28;20452;-74
2022/01/26 06:23:28;;;;;;;0.50;0.10;;;3.60;1.00;;;;;;5019612;28;20450;-75
2022/01/26 06:25:58;;;;;;;0.50;0.10;;;3.60;1.00;;;;;;5013222;28;20474;-73
2022/01/26 06:28:28;;;;;;;0.50;0.10;;;3.60;1.00;;;;;;5013180;28;20476;-73
2022/01/26 06:30:59;;;;;;;0.50;0.10;;;3.60;1.00;;;;;;5015750;28;20567;-74
2022/01/26 06:33:29;;;;;;;0.50;0.10;;;3.60;1.00;;;;;;5014150;28;20559;-75
2022/01/26 06:35:57;;;;;;;0.50;0.10;;;3.60;1.00;;;;;;5011034;28;20471;-75
2022/01/26 06:38:25;;;;;;;0.60;0.50;;;3.60;1.00;;;;;;5012872;28;20514;-75
2022/01/26 06:40:54;;;;;;;0.50;0.10;;;3.70;1.00;;;;;;5013630;28;20959;-75
2022/01/26 06:43:24;;;;;;;0.50;0.20;;;3.50;1.00;;;;;;5018115;28;20464;-75
2022/01/26 06:45:58;;;;;;;0.50;0.10;;;3.40;1.00;;;;;;5034247;28;20472;-75
2022/01/26 06:48:42;;;;;;;3.77;1.37;;;3.40;1.00;;;;;;5032310;28;20869;-75
2022/01/26 06:51:11;;;;;;;0.50;0.30;;;3.30;1.00;;;;;;5014740;28;20480;-74
2022/01/26 06:53:39;;;;;;;0.70;0.30;;;3.20;1.00;;;;;;5028120;28;20562;-75
2022/01/26 06:56:07;;;;;;;3.77;1.97;;;3.20;1.00;;;;;;5034792;28;20606;-74
2022/01/26 06:58:35;;;;;;;0.50;0.17;;;3.20;1.00;;;;;;5013585;28;20506;-74
2022/01/26 07:01:04;;;;;;;0.80;0.50;;;3.10;1.00;;;;;;5012712;28;20441;-74
2022/01/26 07:03:32;;;;;;;0.60;0.40;;;3.20;1.00;;;;;;5016860;28;20857;-75
2022/01/26 07:06:00;;;;;;;2.70;1.73;;;3.10;1.00;;;;;;5039629;28;20484;-73
2022/01/26 07:08:28;;;;;;;6.80;6.37;;;3.20;1.00;;;;;;5037414;28;20470;-74
2022/01/26 07:10:56;;;;;;;1.37;1.07;;;;;;;;;;5032464;28;20480;-74
2022/01/26 07:13:26;;;;;;;3.80;3.70;;;3.10;1.00;;;;;;5028292;28;20450;-73
2022/01/26 07:21:29;;;;;;;0.60;0.20;;;3.00;1.00;;;;;;5019833;28;20811;-75
2022/01/26 07:23:59;;;;;;;4.57;4.37;;;3.00;1.00;;;;;;5019965;28;20473;-75
2022/01/26 07:26:30;;;;;;;0.50;0.10;;;3.10;1.00;;;;;;5032348;28;20495;-74
2022/01/26 07:28:59;;;;;;;0.50;0.10;;;3.00;1.00;;;;;;5033147;28;20534;-74
2022/01/26 07:31:27;;;;;;;0.50;0.10;;;3.10;1.00;;;;;;5032487;28;20511;-75
2022/01/26 07:33:57;;;;;;;0.60;0.10;;;3.10;1.00;;;;;;5031792;28;20982;-75
2022/01/26 07:36:26;;;;;;;0.50;0.10;;;3.20;1.00;;;;;;5031613;28;20821;-73
2022/01/26 07:38:57;;;;;;;0.50;0.10;;;3.30;1.00;;;;;;5032166;28;20518;-73
2022/01/26 07:41:26;;;;;;;0.50;0.10;;;3.30;1.00;;;;;;5022238;28;20479;-75
2022/01/26 07:43:53;;;;;;;0.50;0.10;;;3.30;1.00;;;;;;5024335;28;20476;-73
2022/01/26 07:46:22;;;;;;;0.50;0.10;;;3.40;1.00;;;;;;5013901;28;20545;-74
2022/01/26 07:48:51;;;;;;;0.50;0.10;;;3.50;1.00;;;;;;5010089;28;20460;-75
2022/01/26 07:51:20;;;;;;;0.50;0.10;;;3.50;1.00;;;;;;5018607;28;20852;-74
2022/01/26 07:53:48;;;;;;;0.50;0.20;;;3.60;1.00;;;;;;5020798;28;20784;-75
2022/01/26 07:56:16;;;;;;;0.50;0.10;;;3.60;1.00;;;;;;5010348;28;20440;-74
2022/01/26 07:58:47;;;;;;;0.50;0.10;;;3.60;1.00;;;;;;5012888;28;20460;-74
2022/01/26 08:01:16;;;;;;;1.73;0.70;;;3.60;1.00;;;;;;5016643;28;20544;-73
2022/01/26 08:03:45;;;;;;;0.50;0.10;;;3.60;1.00;;;;;;5020448;28;20455;-72
2022/01/26 08:06:17;;;;;;;0.73;0.57;;;3.60;1.00;;;;;;5034274;28;20489;-73
2022/01/26 08:08:46;;;;;;;0.50;0.10;;;3.60;1.00;;;;;;5031874;28;20535;-74
2022/01/26 08:11:14;;;;;;;0.50;0.10;;;3.60;1.00;;;;;;5031392;28;20512;-74
2022/01/26 08:13:42;;;;;;;0.83;0.77;;;3.70;1.00;;;;;;5027742;28;20526;-74
2022/01/26 08:16:09;;;;;;;0.50;0.10;;;3.70;1.00;;;;;;5012495;28;20455;-76
2022/01/26 08:18:38;;;;;;;0.50;0.10;;;3.70;1.00;;;;;;5016161;28;20514;-76
2022/01/26 08:21:06;;;;;;;1.40;1.30;;;3.80;1.00;;;;;;5016046;28;20442;-76
2022/01/26 08:23:37;;;;;;;0.50;0.10;;;3.70;1.00;;;;;;5015454;28;20467;-74
2022/01/26 08:26:06;;;;;;;0.50;0.10;;;3.80;1.00;;;;;;5015626;28;20454;-74
2022/01/26 08:28:37;;;;;;;1.43;1.33;;;3.70;1.00;;;;;;5018132;28;20479;-76
2022/01/26 08:31:05;;;;;;;0.50;0.20;;;3.70;1.00;;;;;;5026554;28;20509;-75
2022/01/26 08:33:34;;;;;;;1.43;1.33;;;;;;;;;;5019701;28;20446;-73
2022/01/26 08:36:01;;;;;;;0.50;0.10;;;3.70;1.00;;;;;;5017368;28;20453;-74
2022/01/26 08:38:29;;;;;;;0.50;0.10;;;3.80;1.00;;;;;;5025673;28;20526;-73
2022/01/26 08:40:57;;;;;;;0.50;0.10;;;3.80;1.00;;;;;;5028269;28;20450;-73
2022/01/26 08:43:26;;;;;;;0.50;0.10;;;3.80;1.00;;;;;;5033722;28;20444;-75
2022/01/26 08:45:55;;;;;;;0.50;0.10;;;3.90;1.00;;;;;;5030263;28;20498;-75
2022/01/26 08:48:23;;;;;;;0.50;0.10;;;3.90;1.00;;;;;;5041779;28;20438;-75
2022/01/26 08:50:51;;;;;;;0.50;0.10;;;3.90;1.00;;;;;;5035842;28;20865;-75
2022/01/26 08:53:19;;;;;;;0.50;0.10;;;3.90;1.00;;;;;;5030665;28;20462;-76
2022/01/26 08:55:47;;;;;;;0.50;0.10;;;3.90;1.00;;;;;;5020879;28;20696;-75
2022/01/26 08:58:16;;;;;;;2.77;0.93;;;4.00;1.00;;;;;;5027155;28;20451;-74
2022/01/26 09:00:45;;;;;;;1.40;1.00;;;3.90;1.00;;;;;;5031081;28;20756;-74
2022/01/26 09:03:16;;;;;;;0.50;0.10;;;3.60;1.00;;;;;;5033991;28;20444;-75
2022/01/26 09:05:44;;;;;;;0.50;0.10;;;3.50;1.00;;;;;;5011544;28;20529;-74
2022/01/26 09:08:12;;;;;;;0.50;0.20;;;3.50;1.00;;;;;;5014483;28;20455;-73
2022/01/26 09:10:41;;;;;;;0.50;0.20;;;3.40;1.00;;;;;;5021857;28;20815;-72
2022/01/26 09:13:09;;;;;;;0.60;0.40;;;3.40;1.00;;;;;;5011825;28;20485;-72
2022/01/26 09:15:39;;;;;;;0.50;0.20;;;3.30;1.00;;;;;;5013160;28;20476;-74
2022/01/26 09:18:14;;;;;;;1.43;0.50;;;3.20;1.00;;;;;;5014676;28;20872;-73
2022/01/26 09:20:41;;;;;;;0.80;0.77;;;3.10;1.00;;;;;;5014724;28;20453;-73
2022/01/26 09:23:09;;;;;;;0.50;0.10;;;3.10;1.00;;;;;;5020792;28;20436;-75
2022/01/26 09:25:38;;;;;;;0.50;0.10;;;3.20;1.00;;;;;;5018093;28;20469;-74
2022/01/26 09:28:06;;;;;;;0.60;0.40;;;3.30;1.00;;;;;;5014840;28;20450;-74
2022/01/26 09:30:33;;;;;;;0.50;0.10;;;3.40;1.00;;;;;;5013637;28;20446;-76
2022/01/26 09:33:01;;;;;;;0.87;0.70;;;3.40;1.00;;;;;;5014792;28;20567;-76
2022/01/26 09:35:30;;;;;;;0.70;0.30;;;3.40;1.00;;;;;;5014537;28;20480;-75
2022/01/26 09:37:58;;;;;;;0.50;0.10;;;3.40;1.00;;;;;;5019580;28;20540;-73
2022/01/26 09:40:26;;;;;;;0.60;0.37;;;3.40;1.00;;;;;;5018553;28;20459;-73
2022/01/26 09:42:57;;;;;;;1.43;0.93;;;3.50;1.00;;;;;;5014541;28;20705;-72
2022/01/26 09:45:24;;;;;;;1.27;1.07;;;3.40;1.00;;;;;;5015106;28;20563;-74
2022/01/26 09:47:52;;;;;;;1.37;0.40;;;3.30;1.00;;;;;;5017826;28;20535;-74
2022/01/26 09:50:34;;;;;;;0.60;0.27;;;3.30;1.00;;;;;;5021444;28;20767;-74
2022/01/26 09:53:03;;;;;;;3.30;3.17;;;3.20;1.00;;;;;;5030587;28;20578;-75
2022/01/26 09:55:32;;;;;;;2.20;0.53;;;3.30;1.00;;;;;;5034755;28;20469;-75
2022/01/26 09:58:05;;;;;;;0.60;0.40;;;3.30;1.00;;;;;;5019824;28;20450;-76
2022/01/26 10:00:33;;;;;;;0.50;0.20;;;3.30;1.00;;;;;;5024128;28;20483;-75
2022/01/26 10:03:03;;;;;;;0.50;0.10;;;3.30;1.00;;;;;;5022167;28;20995;-77
2022/01/26 10:05:41;;;;;;;0.90;0.77;;;3.30;1.00;;;;;;5018330;28;20467;-75
2022/01/26 10:08:15;;;;;;;1.17;0.33;;;3.40;1.00;;;;;;5015869;28;20453;-76
2022/01/26 10:16:56;;;;;;;0.60;0.10;;;3.40;1.00;;;;;;5003966;28;20475;-75
2022/01/26 10:19:20;;;;;;;1.10;0.97;;;3.40;1.00;;;;;;5008595;28;20938;-72
2022/01/26 10:21:51;;;;;;;0.50;0.10;;;3.50;1.00;;;;;;5013899;28;20531;-75
2022/01/26 10:24:25;;;;;;;3.70;3.40;;;3.50;1.00;;;;;;5008858;28;20476;-72
2022/01/26 10:26:59;;;;;;;2.40;1.40;;;3.50;1.00;;;;;;5021930;28;20814;-72
2022/01/26 10:29:28;;;;;;;0.50;0.10;;;3.40;1.00;;;;;;5032127;28;20445;-74
2022/01/26 10:31:56;;;;;;;0.50;0.20;;;3.40;1.00;;;;;;5021894;28;20824;-75
2022/01/26 10:34:25;;;;;;;4.83;4.20;;;3.40;1.00;;;;;;5016565;28;20486;-74
2022/01/26 10:36:57;;;;;;;0.50;0.10;;;3.40;1.00;;;;;;5018371;28;20446;-74
2022/01/26 10:39:29;;;;;;;0.60;0.43;;;3.40;1.00;;;;;;5032357;28;20973;-75
2022/01/26 10:42:01;;;;;;;0.63;0.37;;;3.50;1.00;;;;;;5035556;28;20449;-75
2022/01/26 10:44:32;;;;;;;5.20;4.53;;;3.50;1.00;;;;;;5015526;28;20461;-71
2022/01/26 10:47:03;;;;;;;0.57;0.20;;;3.50;1.00;;;;;;5015700;28;20461;-74
2022/01/26 10:49:56;;;;;;;2.20;1.30;;;3.60;1.00;;;;;;5013572;28;20467;-73
2022/01/26 10:52:33;;;;;;;3.23;0.70;;;3.60;1.00;;;;;;5009132;28;20489;-73
2022/01/26 10:55:03;;;;;;;3.23;1.33;;;3.60;1.00;;;;;;5013881;28;20459;-76
2022/01/26 10:57:31;;;;;;;0.93;0.73;;;3.70;1.00;;;;;;5014619;28;20546;-74
2022/01/26 10:59:59;;;;;;;1.83;1.73;;;3.70;1.00;;;;;;5025005;28;20441;-77
2022/01/26 11:02:30;;;;;;;1.23;1.13;;;3.70;1.00;;;;;;5025286;28;20449;-75
2022/01/26 11:04:58;;;;;;;0.63;0.50;;;3.60;1.00;;;;;;5013791;28;21007;-74
2022/01/26 11:07:37;;;;;;;2.67;2.23;;;3.60;1.00;;;;;;5019754;28;20921;-75
2022/01/26 11:10:06;;;;;;;1.27;1.03;;;3.60;1.00;;;;;;5019623;28;20476;-74
2022/01/26 11:12:39;;;;;;;1.13;1.03;;;3.50;1.00;;;;;;5012216;28;20472;-74
2022/01/26 11:15:10;;;;;;;1.93;1.10;;;3.60;1.00;;;;;;5014936;28;20472;-74
2022/01/26 11:17:42;;;;;;;0.50;0.10;;;3.60;1.00;;;;;;5016614;28;20467;-74
2022/01/26 11:20:20;;;;;;;0.50;0.20;;;3.50;1.00;;;;;;5017277;28;20963;-74
2022/01/26 11:22:52;;;;;;;0.50;0.10;;;3.60;1.00;;;;;;5017769;28;20445;-73
2022/01/26 11:25:22;;;;;;;0.60;0.40;;;3.60;1.00;;;;;;5016357;28;20499;-72
2022/01/26 11:27:51;;;;;;;2.60;1.90;;;3.70;1.00;;;;;;5019094;28;20444;-74
2022/01/26 11:30:22;;;;;;;5.70;2.63;;;3.70;1.00;;;;;;5017884;28;20475;-73
2022/01/26 11:32:51;;;;;;;3.70;3.50;;;3.70;1.00;;;;;;5020796;28;20472;-76
2022/01/26 11:35:21;;;;;;;5.70;3.37;;;3.60;1.00;;;;;;5016971;28;20471;-76
2022/01/26 11:38:04;;;;;;;3.03;1.43;;;3.50;1.00;;;;;;5016002;28;21050;-74
2022/01/26 11:46:26;;;;;;;0.50;0.20;;;3.40;1.00;;;;;;5014375;28;20460;-76
2022/01/26 11:49:06;;;;;;;0.50;0.10;;;3.40;1.00;;;;;;5021246;28;20483;-75
2022/01/26 11:51:43;;;;;;;1.90;1.80;;;3.40;1.00;;;;;;5022583;28;20471;-75
2022/01/26 11:54:14;;;;;;;0.50;0.10;;;3.50;1.00;;;;;;5026130;28;20497;-75
2022/01/26 11:56:58;;;;;;;2.43;1.43;;;3.60;1.00;;;;;;5028562;28;20481;-75
2022/01/26 11:59:28;;;;;;;1.07;1.03;;;3.60;1.00;;;;;;5027704;28;20445;-74
2022/01/26 12:02:00;;;;;;;0.77;0.70;;;3.60;1.00;;;;;;5027546;28;20449;-74
2022/01/26 12:04:32;;;;;;;0.50;0.10;;;3.60;1.00;;;;;;5003099;28;20489;-74
2022/01/26 12:07:10;;;;;;;0.50;0.10;;;3.60;1.00;;;;;;5005566;28;20542;-77
2022/01/26 12:09:41;;;;;;;0.50;0.10;;;3.60;1.00;;;;;;5023466;28;20553;-76
2022/01/26 12:12:18;;;;;;;0.50;0.10;;;3.80;1.00;;;;;;5024605;28;20443;-76
2022/01/26 12:14:59;;;;;;;9.60;9.20;;;3.80;1.00;;;;;;5024071;28;20496;-75
2022/01/26 12:17:30;;;;;;;1.90;0.37;;;3.90;1.00;;;;;;5022057;28;20456;-77
2022/01/26 12:37:20;;;;;;;1.87;1.73;;;5.20;1.00;;;;;;5017102;28;20501;-73
2022/01/26 12:42:53;;;;;;;1.47;1.37;;;3.50;1.00;;;;;;4997932;28;20456;-75
2022/01/26 12:45:41;;;;;;;1.53;0.83;;;3.50;1.00;;;;;;4998241;28;20482;-74
2022/01/26 12:48:14;;;;;;;1.03;0.90;;;;;;;;;;5015544;28;20492;-75
2022/01/26 12:50:43;;;;;;;2.40;2.20;;;3.50;1.00;;;;;;5020141;28;20525;-75
2022/01/26 12:53:12;;;;;;;0.50;0.10;;;3.50;1.00;;;;;;5015139;28;20906;-75
2022/01/26 12:55:40;;;;;;;0.70;0.70;;;3.50;1.00;;;;;;5014951;28;20475;-74
2022/01/26 12:58:09;;;;;;;2.80;2.60;;;3.50;1.00;;;;;;5015734;28;20837;-74
2022/01/26 13:00:42;;;;;;;1.43;1.17;;;3.40;1.00;;;;;;5017766;28;20455;-75
2022/01/26 13:03:13;;;;;;;0.50;0.10;;;3.50;1.00;;;;;;5025528;28;20463;-74
2022/01/26 13:05:42;;;;;;;0.73;0.60;;;3.60;1.00;;;;;;5020160;28;20463;-72
2022/01/26 13:08:11;;;;;;;1.20;0.83;;;3.70;1.00;;;;;;5015420;28;20442;-73
2022/01/26 13:10:40;;;;;;;0.50;0.10;;;3.80;1.00;;;;;;5015474;28;20451;-74
2022/01/26 13:13:20;;;;;;;0.50;0.10;;;3.90;1.00;;;;;;5016246;28;20443;-74
2022/01/26 13:15:54;;;;;;;0.60;0.33;;;4.00;1.00;;;;;;5015763;28;20478;-75
2022/01/26 13:24:51;;;;;;;4.03;0.67;;;4.10;1.00;;;;;;4984299;28;20874;-75
2022/01/26 13:27:32;;;;;;;2.47;2.37;;;4.10;1.00;;;;;;5015890;28;20477;-74
2022/01/26 13:30:20;;;;;;;1.27;0.97;;;4.10;1.00;;;;;;4996849;28;20488;-75
2022/01/26 13:35:47;;;;;;;0.50;0.20;;;4.10;1.00;;;;;;4998319;28;20549;-77
2022/01/26 13:38:35;;;;;;;6.37;3.50;;;4.00;1.00;;;;;;5012983;28;20465;-75
2022/01/26 13:41:17;;;;;;;0.50;0.10;;;4.10;1.00;;;;;;5017098;28;20517;-77
2022/01/26 13:47:07;;;;;;;0.50;0.10;;;4.00;1.00;;;;;;5023519;28;20486;-76
2022/01/26 13:49:51;;;;;;;1.50;1.40;;;4.10;1.00;;;;;;5014883;28;20446;-75
2022/01/26 13:52:41;;;;;;;0.50;0.10;;;4.10;1.00;;;;;;5016431;28;20441;-75
2022/01/26 14:00:43;;;;;;;0.60;0.50;;;4.10;1.00;;;;;;5018153;28;20454;-75
2022/01/26 14:03:15;;;;;;;0.50;0.10;;;4.10;1.00;;;;;;5015125;28;20447;-76
2022/01/26 14:05:43;;;;;;;3.13;2.73;;;4.10;1.00;;;;;;5014094;28;20469;-75
2022/01/26 14:08:11;;;;;;;3.17;2.97;;;4.00;1.00;;;;;;5012856;28;20446;-74
2022/01/26 14:10:43;;;;;;;2.10;1.27;;;4.00;1.00;;;;;;4995520;28;20583;-75
2022/01/26 14:13:11;;;;;;;3.13;1.47;;;3.70;1.00;;;;;;4996253;28;20454;-75
2022/01/26 14:15:44;;;;;;;1.83;1.50;;;;;;;;;;4994420;28;20492;-75
2022/01/26 14:18:40;;;;;;;0.93;0.93;;;3.70;1.00;;;;;;5000105;28;20985;-75
2022/01/26 14:21:29;;;;;;;0.70;0.63;;;3.60;1.00;;;;;;5014396;28;20447;-74
2022/01/26 14:24:10;;;;;;;1.23;1.13;;;3.60;1.00;;;;;;5013444;28;20462;-74
2022/01/26 14:26:40;;;;;;;0.60;0.30;;;3.60;1.00;;;;;;5014098;28;20461;-75
2022/01/26 14:29:17;;;;;;;1.53;0.93;;;3.70;1.00;;;;;;5013864;28;20537;-74
2022/01/26 14:54:46;;;;;;;0.50;0.10;;;3.80;1.00;;;;;;5014858;28;20578;-74
2022/01/26 15:19:42;;;;;;;0.50;0.10;;;3.80;1.00;;;;;;5013713;28;20845;-74
2022/01/26 15:30:44;;;;;;;1.37;1.27;;;4.00;1.00;;;;;;5032032;28;20451;-74
2022/01/26 15:33:24;;;;;;;0.50;0.10;;;4.10;1.00;;;;;;4998344;28;20439;-74
2022/01/26 15:40:01;;;;;;;0.50;0.10;;;4.00;1.00;;;;;;5048083;23;20807;-77
2022/01/26 15:41:50;;;;;;;0.50;0.10;;;4.20;1.00;;;;;;5020341;28;20452;-76
2022/01/26 15:44:24;;;;;;;0.50;0.10;;;4.30;1.00;;;;;;5020133;28;20486;-77
2022/01/26 15:50:10;;;;;;;3.43;3.27;;;4.30;1.00;;;;;;5004237;28;20435;-76
2022/01/26 15:52:50;;;;;;;0.50;0.10;;;4.20;1.00;;;;;;5005360;28;20481;-76
2022/01/26 15:58:18;;;;;;;0.50;0.10;;;4.10;1.00;;;;;;4998119;28;20445;-76
2022/01/26 16:06:23;;;;;;;1.60;1.50;;;4.30;1.00;;;;;;5012009;28;20472;-76
2022/01/26 16:17:54;;;;;;;2.87;2.77;;;4.10;1.00;;;;;;5009548;28;21020;-74
2022/01/26 17:02:42;;;;;;;3.73;3.30;;;3.90;1.00;;;;;;4999538;28;20450;-75
2022/01/26 17:47:42;;;;;;;0.50;0.10;;;4.10;1.00;;;;;;4994740;28;20816;-74
2022/01/26 18:04:20;;;;;;;0.97;0.60;;;3.90;1.00;;;;;;4994701;28;20465;-74
2022/01/26 18:15:33;;;;;;;0.60;0.33;;;3.80;1.00;;;;;;5013028;28;20573;-73
2022/01/26 18:22:21;;;;;;;23.07;5.10;;;;;;;;;;5003095;28;20546;-74
2022/01/26 18:26:31;;;;;;;0.60;0.33;;;3.70;1.00;;;;;;5002864;28;20949;-74
2022/01/26 18:32:09;;;;;;;0.50;0.10;;;3.70;1.00;;;;;;5002707;28;20472;-74
2022/01/26 18:51:32;;;;;;;0.60;0.30;;;3.90;1.00;;;;;;5002003;28;20484;-74
2022/01/26 18:54:01;;;;;;;0.80;0.40;;;3.80;1.00;;;;;;5003066;28;20516;-74
2022/01/26 18:56:30;;;;;;;1.33;1.23;;;;;;;;;;4999288;28;20481;-74
2022/01/26 18:59:00;;;;;;;0.60;0.10;;;3.80;1.00;;;;;;4999347;28;20453;-74
2022/01/26 19:01:30;;;;;;;2.20;1.03;;;;;;;;;;5001185;28;20462;-75
2022/01/26 19:04:24;;;;;;;2.47;2.03;;;;;;;;;;5004224;28;20460;-74
2022/01/26 19:06:54;;;;;;;1.57;1.47;;;;;;;;;;5004961;28;20821;-75
2022/01/26 19:09:33;;;;;;;3.23;2.03;;;;;;;;;;5007430;28;20521;-75
2022/01/26 19:12:09;;;;;;;1.80;1.70;;;3.70;1.00;;;;;;5005314;28;20481;-74